Terminal Aerodrome Forecast
Issued by NWS

Home | Current Version | Previous Version | Text Only | Print | Product List | Glossary On
Versions: 1 2 3 4 5 6 7 8 9 10 11 12 13 14 15 16 17 18 19 20 21 22 23 24 25 26 27 28 29 30 31 32 33 34
000
FTUS44 KOHX 190558 AAA
TAFCKV
TAF AMD
KCKV 190558Z 1906/2006 32013KT 1SM RA BR BKN015 OVC025
     FM190700 33010G17KT 6SM BR VCSH OVC007
     FM192000 32012G20KT 5SM -RA BR OVC007
     FM192300 33015G27KT 4SM -RA BR OVC007=

USA.gov is the U.S. government's official web portal to all federal, state and local government web resources and services.